MCX4154 KOMA-KMCI
Flight info
| Callsign | MCX4154 |
|---|---|
| Flight time | 0h 27m |
| Altitude | 17000 |
| Route | ASIIX JSONN4 |
| Aircraft | CRJ7/M-SDFGIRWY/S |
Departure
| Time | 2026-04-21 19:03 |
|---|---|
| Airport | Eppley Airfield (KOMA) |
Arrival
| Time | 2026-04-21 19:31 |
|---|---|
| Airport | Kansas City International Airport (KMCI) |
| Time | Latitude | Longitude | Altitude | Speed | Heading |
|---|---|---|---|---|---|
| 2026-04-21 18:36 | 41.29768 | -95.89897 | 983 ft | 0 kts | 90° |
| 2026-04-21 18:50 | 41.29768 | -95.89902 | 983 ft | 3 kts | 91° |
| 2026-04-21 18:50 | 41.29772 | -95.89936 | 984 ft | 4 kts | 110° |
| 2026-04-21 18:51 | 41.29786 | -95.89963 | 992 ft | 4 kts | 148° |
| 2026-04-21 18:51 | 41.29802 | -95.89968 | 983 ft | 1 kts | 179° |
| 2026-04-21 18:51 | 41.29805 | -95.89969 | 987 ft | 0 kts | 179° |
| 2026-04-21 18:53 | 41.29797 | -95.89968 | 987 ft | 2 kts | 179° |
| 2026-04-21 18:53 | 41.29779 | -95.89968 | 988 ft | 4 kts | 179° |
| 2026-04-21 18:54 | 41.29740 | -95.89968 | 983 ft | 7 kts | 181° |
| 2026-04-21 18:54 | 41.29688 | -95.89962 | 986 ft | 7 kts | 163° |
| 2026-04-21 18:54 | 41.29653 | -95.89927 | 989 ft | 6 kts | 125° |
| 2026-04-21 18:54 | 41.29642 | -95.89883 | 989 ft | 4 kts | 93° |
| 2026-04-21 18:55 | 41.29641 | -95.89858 | 986 ft | 4 kts | 91° |
| 2026-04-21 18:55 | 41.29641 | -95.89816 | 983 ft | 3 kts | 90° |
| 2026-04-21 18:55 | 41.29641 | -95.89787 | 983 ft | 4 kts | 90° |
| 2026-04-21 18:55 | 41.29640 | -95.89746 | 987 ft | 5 kts | 90° |
| 2026-04-21 18:56 | 41.29645 | -95.89700 | 983 ft | 4 kts | 49° |
| 2026-04-21 18:56 | 41.29671 | -95.89690 | 985 ft | 4 kts | 0° |
| 2026-04-21 18:56 | 41.29710 | -95.89690 | 983 ft | 8 kts | 0° |
| 2026-04-21 18:56 | 41.29774 | -95.89689 | 981 ft | 10 kts | 0° |
| 2026-04-21 18:57 | 41.29847 | -95.89688 | 983 ft | 11 kts | 0° |
| 2026-04-21 18:57 | 41.29927 | -95.89688 | 985 ft | 13 kts | 359° |
| 2026-04-21 18:57 | 41.30026 | -95.89689 | 986 ft | 16 kts | 360° |
| 2026-04-21 18:57 | 41.30126 | -95.89696 | 990 ft | 13 kts | 338° |
| 2026-04-21 18:58 | 41.30192 | -95.89754 | 984 ft | 10 kts | 324° |
| 2026-04-21 18:58 | 41.30249 | -95.89821 | 984 ft | 11 kts | 315° |
| 2026-04-21 18:58 | 41.30316 | -95.89887 | 987 ft | 13 kts | 325° |
| 2026-04-21 18:58 | 41.30390 | -95.89957 | 989 ft | 13 kts | 324° |
| 2026-04-21 18:59 | 41.30463 | -95.90027 | 985 ft | 12 kts | 324° |
| 2026-04-21 18:59 | 41.30532 | -95.90102 | 983 ft | 13 kts | 319° |
| 2026-04-21 18:59 | 41.30605 | -95.90184 | 991 ft | 14 kts | 323° |
| 2026-04-21 18:59 | 41.30688 | -95.90263 | 986 ft | 15 kts | 324° |
| 2026-04-21 19:00 | 41.30780 | -95.90351 | 988 ft | 17 kts | 324° |
| 2026-04-21 19:00 | 41.30877 | -95.90443 | 983 ft | 18 kts | 324° |
| 2026-04-21 19:00 | 41.30978 | -95.90538 | 989 ft | 18 kts | 324° |
| 2026-04-21 19:00 | 41.31074 | -95.90630 | 984 ft | 17 kts | 324° |
| 2026-04-21 19:01 | 41.31167 | -95.90720 | 989 ft | 17 kts | 325° |
| 2026-04-21 19:01 | 41.31248 | -95.90790 | 988 ft | 10 kts | 348° |
| 2026-04-21 19:01 | 41.31301 | -95.90745 | 985 ft | 10 kts | 52° |
| 2026-04-21 19:01 | 41.31340 | -95.90672 | 987 ft | 9 kts | 55° |
| 2026-04-21 19:02 | 41.31360 | -95.90601 | 985 ft | 8 kts | 116° |
| 2026-04-21 19:02 | 41.31336 | -95.90566 | 991 ft | 0 kts | 143° |
| 2026-04-21 19:02 | 41.31313 | -95.90544 | 991 ft | 22 kts | 143° |
| 2026-04-21 19:02 | 41.31016 | -95.90263 | 987 ft | 82 kts | 144° |
| 2026-04-21 19:03 | 41.30645 | -95.89910 | 983 ft | 115 kts | 144° |
| 2026-04-21 19:03 | 41.29875 | -95.89178 | 1005 ft | 151 kts | 144° |
| 2026-04-21 19:03 | 41.29019 | -95.88357 | 1439 ft | 151 kts | 144° |
| 2026-04-21 19:03 | 41.28177 | -95.87505 | 1893 ft | 152 kts | 144° |
| 2026-04-21 19:04 | 41.27328 | -95.86632 | 2270 ft | 162 kts | 143° |
| 2026-04-21 19:04 | 41.26352 | -95.85606 | 2398 ft | 191 kts | 143° |
| 2026-04-21 19:04 | 41.25197 | -95.84610 | 2796 ft | 206 kts | 155° |
| 2026-04-21 19:04 | 41.23856 | -95.83875 | 3360 ft | 210 kts | 159° |
| 2026-04-21 19:05 | 41.22455 | -95.83185 | 3980 ft | 226 kts | 160° |
| 2026-04-21 19:05 | 41.20897 | -95.82466 | 4444 ft | 248 kts | 160° |
| 2026-04-21 19:05 | 41.19201 | -95.81705 | 5010 ft | 266 kts | 161° |
| 2026-04-21 19:05 | 41.17399 | -95.80885 | 5596 ft | 281 kts | 160° |
| 2026-04-21 19:06 | 41.15536 | -95.80031 | 6349 ft | 286 kts | 160° |
| 2026-04-21 19:06 | 41.13647 | -95.79107 | 7107 ft | 292 kts | 160° |
| 2026-04-21 19:06 | 41.11730 | -95.78148 | 7848 ft | 297 kts | 160° |
| 2026-04-21 19:06 | 41.09778 | -95.77177 | 8624 ft | 301 kts | 161° |
| 2026-04-21 19:07 | 41.07800 | -95.76189 | 9380 ft | 306 kts | 162° |
| 2026-04-21 19:07 | 41.05777 | -95.75206 | 10126 ft | 311 kts | 162° |
| 2026-04-21 19:07 | 41.03722 | -95.74216 | 10697 ft | 323 kts | 162° |
| 2026-04-21 19:07 | 41.01512 | -95.73148 | 10811 ft | 350 kts | 162° |
| 2026-04-21 19:08 | 40.99732 | -95.72289 | 10944 ft | 368 kts | 162° |
| 2026-04-21 19:08 | 40.97995 | -95.71447 | 11118 ft | 382 kts | 162° |
| 2026-04-21 19:08 | 40.95441 | -95.70220 | 11396 ft | 398 kts | 162° |
| 2026-04-21 19:08 | 40.92816 | -95.68969 | 11985 ft | 404 kts | 162° |
| 2026-04-21 19:09 | 40.90155 | -95.67693 | 12627 ft | 409 kts | 162° |
| 2026-04-21 19:09 | 40.87465 | -95.66402 | 13254 ft | 414 kts | 162° |
| 2026-04-21 19:09 | 40.84730 | -95.65112 | 13864 ft | 419 kts | 162° |
| 2026-04-21 19:09 | 40.81971 | -95.63819 | 14484 ft | 422 kts | 162° |
| 2026-04-21 19:10 | 40.79196 | -95.62485 | 15066 ft | 426 kts | 162° |
| 2026-04-21 19:10 | 40.76400 | -95.61149 | 15647 ft | 429 kts | 162° |
| 2026-04-21 19:10 | 40.73585 | -95.59797 | 16186 ft | 432 kts | 162° |
| 2026-04-21 19:10 | 40.70746 | -95.58439 | 16626 ft | 438 kts | 162° |
| 2026-04-21 19:11 | 40.67849 | -95.57047 | 16825 ft | 446 kts | 162° |
| 2026-04-21 19:11 | 40.64932 | -95.55654 | 16911 ft | 445 kts | 162° |
| 2026-04-21 19:11 | 40.62036 | -95.54271 | 16942 ft | 441 kts | 162° |
| 2026-04-21 19:11 | 40.59162 | -95.52892 | 16967 ft | 438 kts | 162° |
| 2026-04-21 19:12 | 40.56302 | -95.51528 | 16972 ft | 437 kts | 162° |
| 2026-04-21 19:12 | 40.53432 | -95.50163 | 16973 ft | 439 kts | 161° |
| 2026-04-21 19:12 | 40.50553 | -95.48786 | 16981 ft | 441 kts | 162° |
| 2026-04-21 19:12 | 40.47700 | -95.47435 | 16981 ft | 443 kts | 162° |
| 2026-04-21 19:13 | 40.44794 | -95.46055 | 16981 ft | 445 kts | 162° |
| 2026-04-21 19:13 | 40.41880 | -95.44665 | 16981 ft | 446 kts | 161° |
| 2026-04-21 19:13 | 40.38959 | -95.43278 | 16984 ft | 447 kts | 162° |
| 2026-04-21 19:13 | 40.36021 | -95.41891 | 16985 ft | 448 kts | 162° |
| 2026-04-21 19:14 | 40.33084 | -95.40501 | 16982 ft | 449 kts | 161° |
| 2026-04-21 19:14 | 40.30141 | -95.39100 | 16990 ft | 450 kts | 161° |
| 2026-04-21 19:14 | 40.27209 | -95.37722 | 16995 ft | 446 kts | 162° |
| 2026-04-21 19:14 | 40.24307 | -95.36316 | 16991 ft | 441 kts | 164° |
| 2026-04-21 19:15 | 40.21306 | -95.35848 | 16977 ft | 432 kts | 187° |
| 2026-04-21 19:15 | 40.18373 | -95.36508 | 16911 ft | 426 kts | 194° |
| 2026-04-21 19:15 | 40.15488 | -95.37103 | 16532 ft | 414 kts | 189° |
| 2026-04-21 19:15 | 40.12636 | -95.37264 | 16155 ft | 409 kts | 181° |
| 2026-04-21 19:16 | 40.09791 | -95.37144 | 15791 ft | 408 kts | 179° |
| 2026-04-21 19:16 | 40.06960 | -95.36947 | 15415 ft | 406 kts | 179° |
| 2026-04-21 19:16 | 40.04172 | -95.36765 | 15055 ft | 406 kts | 180° |
| 2026-04-21 19:16 | 40.01378 | -95.36631 | 14700 ft | 397 kts | 181° |
| 2026-04-21 19:17 | 39.96869 | -95.36475 | 14117 ft | 380 kts | 181° |
| 2026-04-21 19:17 | 39.94252 | -95.36385 | 13773 ft | 372 kts | 181° |
| 2026-04-21 19:17 | 39.91688 | -95.36293 | 13385 ft | 365 kts | 181° |
| 2026-04-21 19:18 | 39.89175 | -95.36214 | 12988 ft | 358 kts | 181° |
| 2026-04-21 19:18 | 39.86714 | -95.36132 | 12594 ft | 350 kts | 181° |
| 2026-04-21 19:18 | 39.84313 | -95.36048 | 12209 ft | 342 kts | 181° |
| 2026-04-21 19:18 | 39.82000 | -95.35546 | 11868 ft | 337 kts | 159° |
| 2026-04-21 19:19 | 39.80053 | -95.33936 | 11591 ft | 329 kts | 142° |
| 2026-04-21 19:19 | 39.78361 | -95.31990 | 11318 ft | 321 kts | 137° |
| 2026-04-21 19:19 | 39.76799 | -95.29978 | 11013 ft | 312 kts | 136° |
| 2026-04-21 19:19 | 39.75270 | -95.27980 | 10580 ft | 310 kts | 136° |
| 2026-04-21 19:20 | 39.73750 | -95.25994 | 10100 ft | 310 kts | 137° |
| 2026-04-21 19:20 | 39.72208 | -95.24050 | 9669 ft | 306 kts | 139° |
| 2026-04-21 19:20 | 39.70668 | -95.22160 | 9172 ft | 305 kts | 139° |
| 2026-04-21 19:20 | 39.69130 | -95.20277 | 8687 ft | 303 kts | 140° |
| 2026-04-21 19:21 | 39.67601 | -95.18414 | 8199 ft | 301 kts | 140° |
| 2026-04-21 19:21 | 39.66083 | -95.16559 | 7788 ft | 296 kts | 139° |
| 2026-04-21 19:21 | 39.64613 | -95.14758 | 7641 ft | 287 kts | 140° |
| 2026-04-21 19:21 | 39.63145 | -95.12996 | 7539 ft | 288 kts | 141° |
| 2026-04-21 19:22 | 39.61687 | -95.11276 | 7467 ft | 287 kts | 140° |
| 2026-04-21 19:22 | 39.60216 | -95.09476 | 7400 ft | 288 kts | 136° |
| 2026-04-21 19:22 | 39.59162 | -95.07293 | 7228 ft | 292 kts | 112° |
| 2026-04-21 19:22 | 39.58503 | -95.04789 | 7009 ft | 295 kts | 108° |
| 2026-04-21 19:23 | 39.57918 | -95.02234 | 6753 ft | 296 kts | 107° |
| 2026-04-21 19:23 | 39.57341 | -94.99724 | 6491 ft | 294 kts | 108° |
| 2026-04-21 19:23 | 39.56927 | -94.98017 | 6294 ft | 293 kts | 109° |
| 2026-04-21 19:23 | 39.56271 | -94.95529 | 5997 ft | 289 kts | 111° |
| 2026-04-21 19:24 | 39.55588 | -94.93088 | 5695 ft | 287 kts | 112° |
| 2026-04-21 19:24 | 39.54895 | -94.90671 | 5394 ft | 285 kts | 113° |
| 2026-04-21 19:24 | 39.54210 | -94.88273 | 5123 ft | 283 kts | 113° |
| 2026-04-21 19:24 | 39.53538 | -94.85895 | 4823 ft | 277 kts | 112° |
| 2026-04-21 19:25 | 39.52923 | -94.83575 | 4536 ft | 268 kts | 112° |
| 2026-04-21 19:25 | 39.52336 | -94.81327 | 4248 ft | 258 kts | 112° |
| 2026-04-21 19:25 | 39.51778 | -94.79179 | 4107 ft | 248 kts | 113° |
| 2026-04-21 19:25 | 39.51209 | -94.77060 | 4050 ft | 248 kts | 113° |
| 2026-04-21 19:26 | 39.50638 | -94.74999 | 4061 ft | 238 kts | 114° |
| 2026-04-21 19:26 | 39.50083 | -94.73015 | 4008 ft | 232 kts | 114° |
| 2026-04-21 19:26 | 39.49422 | -94.71107 | 3953 ft | 233 kts | 131° |
| 2026-04-21 19:26 | 39.48128 | -94.69990 | 3788 ft | 222 kts | 169° |
| 2026-04-21 19:27 | 39.46687 | -94.69510 | 3722 ft | 204 kts | 172° |
| 2026-04-21 19:27 | 39.45374 | -94.69105 | 3671 ft | 185 kts | 172° |
| 2026-04-21 19:27 | 39.44168 | -94.68723 | 3555 ft | 171 kts | 175° |
| 2026-04-21 19:27 | 39.43076 | -94.68790 | 3364 ft | 153 kts | 195° |
| 2026-04-21 19:28 | 39.42082 | -94.69069 | 3143 ft | 141 kts | 194° |
| 2026-04-21 19:28 | 39.41134 | -94.69343 | 2934 ft | 138 kts | 197° |
| 2026-04-21 19:28 | 39.40219 | -94.69642 | 2665 ft | 133 kts | 197° |
| 2026-04-21 19:28 | 39.39344 | -94.69921 | 2403 ft | 126 kts | 197° |
| 2026-04-21 19:29 | 39.38512 | -94.70159 | 2198 ft | 119 kts | 197° |
| 2026-04-21 19:29 | 39.37708 | -94.70370 | 2041 ft | 118 kts | 197° |
| 2026-04-21 19:29 | 39.36897 | -94.70635 | 1965 ft | 126 kts | 198° |
| 2026-04-21 19:29 | 39.36018 | -94.70937 | 1871 ft | 132 kts | 198° |
| 2026-04-21 19:30 | 39.35123 | -94.71212 | 1653 ft | 131 kts | 196° |
| 2026-04-21 19:30 | 39.34257 | -94.71479 | 1480 ft | 127 kts | 198° |
| 2026-04-21 19:30 | 39.33379 | -94.71752 | 1266 ft | 133 kts | 195° |
| 2026-04-21 19:30 | 39.32457 | -94.72013 | 1113 ft | 136 kts | 194° |
| 2026-04-21 19:31 | 39.31608 | -94.72264 | 1014 ft | 107 kts | 195° |
| 2026-04-21 19:31 | 39.31031 | -94.72434 | 1012 ft | 62 kts | 193° |
| 2026-04-21 19:31 | 39.30682 | -94.72537 | 1010 ft | 31 kts | 191° |
| 2026-04-21 19:31 | 39.30504 | -94.72567 | 1012 ft | 21 kts | 186° |
| 2026-04-21 19:32 | 39.30375 | -94.72542 | 1012 ft | 17 kts | 159° |
| 2026-04-21 19:32 | 39.30326 | -94.72515 | 1012 ft | 0 kts | 154° |
| 2026-04-21 19:32 | 39.30308 | -94.72503 | 1013 ft | 5 kts | 146° |
| 2026-04-21 19:32 | 39.30282 | -94.72464 | 1013 ft | 7 kts | 121° |
| 2026-04-21 19:33 | 39.30265 | -94.72428 | 1013 ft | 8 kts | 121° |
| 2026-04-21 19:33 | 39.30227 | -94.72365 | 1013 ft | 7 kts | 121° |
| 2026-04-21 19:33 | 39.30210 | -94.72303 | 1013 ft | 8 kts | 103° |
| 2026-04-21 19:33 | 39.30197 | -94.72227 | 1013 ft | 9 kts | 103° |
| 2026-04-21 19:34 | 39.30182 | -94.72141 | 1013 ft | 10 kts | 103° |
| 2026-04-21 19:34 | 39.30164 | -94.72064 | 1013 ft | 8 kts | 126° |
| 2026-04-21 19:34 | 39.30125 | -94.72010 | 1012 ft | 9 kts | 141° |
| 2026-04-21 19:34 | 39.30090 | -94.71973 | 1012 ft | 5 kts | 141° |
| 2026-04-21 19:35 | 39.30076 | -94.71959 | 1013 ft | 0 kts | 141° |
| 2026-04-21 19:35 | 39.30071 | -94.71953 | 1013 ft | 0 kts | 141° |
| 2026-04-21 19:35 | 39.30070 | -94.71953 | 1013 ft | 0 kts | 141° |